createdAt,value
2022-10-22T00:00:29.537Z,997.9
2022-10-22T00:01:45.841Z,997.8
2022-10-22T00:03:02.124Z,997.8
2022-10-22T00:04:18.433Z,997.6
2022-10-22T00:05:34.708Z,997.7
2022-10-22T00:06:50.032Z,997.7
2022-10-22T00:08:06.325Z,997.7
2022-10-22T00:09:22.622Z,997.7
2022-10-22T00:10:38.906Z,997.7
2022-10-22T00:11:55.197Z,997.7
2022-10-22T00:13:11.492Z,997.8
2022-10-22T00:14:27.800Z,997.7
2022-10-22T00:15:44.084Z,997.7
2022-10-22T00:17:00.390Z,997.7
2022-10-22T00:18:16.670Z,997.7
2022-10-22T00:19:32.966Z,997.7
2022-10-22T00:20:49.255Z,997.7
2022-10-22T00:22:05.557Z,997.7
2022-10-22T00:23:20.862Z,997.7
2022-10-22T00:24:37.167Z,997.6
2022-10-22T00:25:53.465Z,997.8
2022-10-22T00:27:09.760Z,997.7
2022-10-22T00:28:26.040Z,997.7
2022-10-22T00:30:58.627Z,997.6
2022-10-22T00:32:14.921Z,997.6
2022-10-22T00:33:31.213Z,997.6
2022-10-22T00:34:47.502Z,997.7
2022-10-22T00:36:03.801Z,997.8
2022-10-22T00:37:20.102Z,997.7
2022-10-22T00:38:36.390Z,997.7
2022-10-22T00:39:51.712Z,997.8
2022-10-22T00:41:07.998Z,997.8
2022-10-22T00:42:24.287Z,997.8
2022-10-22T00:43:40.598Z,997.9
2022-10-22T00:44:56.880Z,997.9
2022-10-22T00:46:13.172Z,998
2022-10-22T00:47:29.479Z,998
2022-10-22T00:48:45.761Z,998.1
2022-10-22T00:50:02.070Z,998.1
2022-10-22T00:51:18.361Z,998.1
2022-10-22T00:52:34.640Z,998.1
2022-10-22T00:53:50.931Z,998.1
2022-10-22T00:55:07.232Z,998.1
2022-10-22T00:56:22.538Z,998
2022-10-22T00:57:38.826Z,997.9
2022-10-22T00:58:55.122Z,997.9
2022-10-22T01:00:11.421Z,997.9
2022-10-22T01:01:27.715Z,997.9
2022-10-22T01:02:44.006Z,997.9
2022-10-22T01:04:00.314Z,997.9
2022-10-22T01:05:16.611Z,997.9
2022-10-22T01:06:32.896Z,997.9
2022-10-22T01:07:49.197Z,997.9
2022-10-22T01:09:05.478Z,997.9
2022-10-22T01:10:21.786Z,997.9
2022-10-22T01:11:38.063Z,997.9
2022-10-22T01:12:53.376Z,997.9
2022-10-22T01:14:09.674Z,997.9
2022-10-22T01:15:25.960Z,997.9
2022-10-22T01:16:42.261Z,997.9
2022-10-22T01:17:58.557Z,997.9
2022-10-22T01:19:14.859Z,997.9
2022-10-22T01:20:31.136Z,997.9
2022-10-22T01:21:47.434Z,997.9
2022-10-22T01:23:03.733Z,997.9
2022-10-22T01:24:20.037Z,997.9
2022-10-22T01:25:36.332Z,997.9
2022-10-22T01:26:52.615Z,997.9
2022-10-22T01:28:08.905Z,997.9
2022-10-22T01:29:24.216Z,997.8
2022-10-22T01:30:40.516Z,997.8
2022-10-22T01:31:56.818Z,997.7
2022-10-22T01:33:13.103Z,997.7
2022-10-22T01:34:29.390Z,997.7
2022-10-22T01:35:45.692Z,997.7
2022-10-22T01:37:01.983Z,997.7
2022-10-22T01:38:18.282Z,997.8
2022-10-22T01:39:34.574Z,997.8
2022-10-22T01:40:50.877Z,997.8
2022-10-22T01:42:07.153Z,997.8
2022-10-22T01:43:23.446Z,997.8
2022-10-22T01:44:39.741Z,997.9
2022-10-22T01:45:55.051Z,997.8
2022-10-22T01:47:11.343Z,997.8
2022-10-22T01:48:27.654Z,997.8
2022-10-22T01:49:43.952Z,997.8
2022-10-22T01:51:00.245Z,997.9
2022-10-22T01:52:16.527Z,997.9
2022-10-22T01:53:32.825Z,997.9
2022-10-22T01:54:49.117Z,997.9
2022-10-22T01:56:05.403Z,997.8
2022-10-22T01:57:21.714Z,997.8
2022-10-22T01:58:37.999Z,997.8
2022-10-22T01:59:54.284Z,997.8
2022-10-22T02:01:10.594Z,997.8
2022-10-22T02:02:25.889Z,997.9
2022-10-22T02:03:42.197Z,997.8
2022-10-22T02:04:58.485Z,997.8
2022-10-22T02:06:14.778Z,997.9
2022-10-22T02:07:31.079Z,997.7
2022-10-22T02:08:47.363Z,997.8
2022-10-22T02:10:03.658Z,997.8
2022-10-22T02:11:19.954Z,997.9
2022-10-22T02:12:36.266Z,997.8
2022-10-22T02:13:52.558Z,997.8
2022-10-22T02:15:08.845Z,997.8
2022-10-22T02:16:25.131Z,997.7
2022-10-22T02:17:41.426Z,997.7
2022-10-22T02:18:56.734Z,997.7
2022-10-22T02:20:13.023Z,997.7
2022-10-22T02:21:29.315Z,997.7
2022-10-22T02:22:45.615Z,997.7
2022-10-22T02:24:01.918Z,997.7
2022-10-22T02:25:18.219Z,997.8
2022-10-22T02:26:34.493Z,997.7
2022-10-22T02:27:50.786Z,997.5
2022-10-22T02:29:07.087Z,997.6
2022-10-22T02:30:23.384Z,997.5
2022-10-22T02:31:39.681Z,997.5
2022-10-22T02:32:55.969Z,997.5
2022-10-22T02:34:12.265Z,997.5
2022-10-22T02:35:27.569Z,997.5
2022-10-22T02:36:43.862Z,997.5
2022-10-22T02:38:00.165Z,997.5
2022-10-22T02:39:16.449Z,997.4
2022-10-22T02:40:32.758Z,997.5
2022-10-22T02:41:49.048Z,997.5
2022-10-22T02:43:05.338Z,997.4
2022-10-22T02:44:21.626Z,997.5
2022-10-22T02:45:37.921Z,997.5
2022-10-22T02:46:54.214Z,997.5
2022-10-22T02:48:10.517Z,997.5
2022-10-22T02:49:26.800Z,997.5
2022-10-22T02:50:43.111Z,997.5
2022-10-22T02:51:58.418Z,997.5
2022-10-22T02:53:14.717Z,997.5
2022-10-22T02:54:31.012Z,997.5
2022-10-22T02:55:47.300Z,997.5
2022-10-22T02:57:03.591Z,997.5
2022-10-22T02:58:19.890Z,997.4
2022-10-22T02:59:36.172Z,997.4
2022-10-22T03:00:52.474Z,997.4
2022-10-22T03:02:08.767Z,997.4
2022-10-22T03:03:25.060Z,997.5
2022-10-22T03:04:41.366Z,997.5
2022-10-22T03:05:57.661Z,997.5
2022-10-22T03:07:13.950Z,997.5
2022-10-22T03:08:29.255Z,997.6
2022-10-22T03:09:45.548Z,997.6
2022-10-22T03:11:01.844Z,997.6
2022-10-22T03:12:18.146Z,997.6
2022-10-22T03:13:34.435Z,997.6
2022-10-22T03:14:50.725Z,997.6
2022-10-22T03:16:06.036Z,997.5
2022-10-22T03:17:22.328Z,997.6
2022-10-22T03:18:38.634Z,997.6
2022-10-22T03:19:54.917Z,997.6
2022-10-22T03:21:11.224Z,997.7
2022-10-22T03:22:27.512Z,997.7
2022-10-22T03:23:43.810Z,997.7
2022-10-22T03:25:00.098Z,997.7
2022-10-22T03:26:16.395Z,997.7
2022-10-22T03:27:32.701Z,997.7
2022-10-22T03:28:48.976Z,997.8
2022-10-22T03:30:05.291Z,997.8
2022-10-22T03:31:21.572Z,997.8
2022-10-22T03:32:36.884Z,997.8
2022-10-22T03:33:53.177Z,997.8
2022-10-22T03:35:09.468Z,997.8
2022-10-22T03:36:25.767Z,997.8
2022-10-22T03:37:42.055Z,997.8
2022-10-22T03:38:58.358Z,997.9
2022-10-22T03:40:14.641Z,997.9
2022-10-22T03:41:30.943Z,997.9
2022-10-22T03:42:47.233Z,997.9
2022-10-22T03:44:03.532Z,997.9
2022-10-22T03:45:19.834Z,997.9
2022-10-22T03:46:36.113Z,997.8
2022-10-22T03:47:52.410Z,997.8
2022-10-22T03:49:07.725Z,997.8
2022-10-22T03:50:24.030Z,997.8
2022-10-22T03:51:40.304Z,997.8
2022-10-22T03:52:56.602Z,997.8
2022-10-22T03:54:12.897Z,997.9
2022-10-22T03:55:29.198Z,997.9
2022-10-22T03:56:45.489Z,997.9
2022-10-22T03:58:01.785Z,997.9
2022-10-22T03:59:18.077Z,997.9
2022-10-22T04:00:34.365Z,997.9
2022-10-22T04:01:50.666Z,997.9
2022-10-22T04:03:06.964Z,997.9
2022-10-22T04:04:23.260Z,997.9
2022-10-22T04:05:38.569Z,997.9
2022-10-22T04:06:54.871Z,997.9
2022-10-22T04:08:11.149Z,997.9
2022-10-22T04:09:27.451Z,998
2022-10-22T04:10:43.738Z,998
2022-10-22T04:12:00.029Z,998
2022-10-22T04:13:16.338Z,997.9
2022-10-22T04:14:32.621Z,998
2022-10-22T04:15:48.916Z,997.9
2022-10-22T04:17:05.216Z,998
2022-10-22T04:18:21.501Z,998
2022-10-22T04:19:37.793Z,997.9
2022-10-22T04:20:54.099Z,998
2022-10-22T04:22:09.401Z,998
2022-10-22T04:23:25.709Z,997.9
2022-10-22T04:24:41.997Z,998
2022-10-22T04:25:58.286Z,998
2022-10-22T04:27:14.588Z,998
2022-10-22T04:28:30.875Z,998
2022-10-22T04:29:47.169Z,997.9
2022-10-22T04:31:03.463Z,998
2022-10-22T04:32:19.760Z,998
2022-10-22T04:33:36.063Z,997.9
2022-10-22T04:34:52.343Z,998
2022-10-22T04:36:08.647Z,998
2022-10-22T04:37:24.931Z,998
2022-10-22T04:38:40.247Z,998
2022-10-22T04:39:56.538Z,998.1
2022-10-22T04:41:12.832Z,998
2022-10-22T04:42:29.123Z,998.2
2022-10-22T04:43:45.419Z,998.1
2022-10-22T04:45:01.713Z,998.1
2022-10-22T04:46:18.004Z,998.1
2022-10-22T04:47:34.300Z,998.1
2022-10-22T04:48:50.604Z,998.2
2022-10-22T04:50:06.899Z,998.2
2022-10-22T04:51:23.196Z,998.1
2022-10-22T04:52:39.488Z,998.1
2022-10-22T04:53:55.784Z,998.2
2022-10-22T04:55:11.084Z,998.2
2022-10-22T04:57:43.672Z,998.2
2022-10-22T04:58:59.969Z,998.2
2022-10-22T05:00:16.265Z,998.1
2022-10-22T05:01:32.558Z,998.1
2022-10-22T05:02:48.843Z,998.1
2022-10-22T05:04:05.146Z,998.1
2022-10-22T05:05:21.437Z,998
2022-10-22T05:06:37.738Z,998
2022-10-22T05:07:54.020Z,997.9
2022-10-22T05:09:10.319Z,997.9
2022-10-22T05:10:26.621Z,997.9
2022-10-22T05:11:41.920Z,997.9
2022-10-22T05:12:58.211Z,997.9
2022-10-22T05:14:14.509Z,997.9
2022-10-22T05:15:30.810Z,997.9
2022-10-22T05:16:47.099Z,997.9
2022-10-22T05:18:03.339Z,998
2022-10-22T05:19:19.640Z,997.9
2022-10-22T05:20:35.884Z,998
2022-10-22T05:21:52.134Z,998.1
2022-10-22T05:23:08.423Z,998.1
2022-10-22T05:24:24.677Z,998.2
2022-10-22T05:25:40.908Z,998.2
2022-10-22T05:26:57.146Z,998.2
2022-10-22T05:28:12.416Z,998.2
2022-10-22T05:29:28.657Z,998.3
2022-10-22T05:30:44.888Z,998.3
2022-10-22T05:32:01.123Z,998.3
2022-10-22T05:33:17.381Z,998.4
2022-10-22T05:34:33.621Z,998.3
2022-10-22T05:35:49.852Z,998.3
2022-10-22T05:37:06.102Z,998.3
2022-10-22T05:38:22.332Z,998.3
2022-10-22T05:39:38.563Z,998.3
2022-10-22T05:40:54.818Z,998.3
2022-10-22T05:42:11.058Z,998.3
2022-10-22T05:43:27.295Z,998.4
2022-10-22T05:44:42.548Z,998.4
2022-10-22T05:45:58.789Z,998.4
2022-10-22T05:47:15.026Z,998.4
2022-10-22T05:48:31.274Z,998.4
2022-10-22T05:49:47.518Z,998.4
2022-10-22T05:51:03.748Z,998.4
2022-10-22T05:52:19.989Z,998.4
2022-10-22T05:53:36.224Z,998.4
2022-10-22T05:54:52.479Z,998.3
2022-10-22T05:56:08.714Z,998.4
2022-10-22T05:57:24.955Z,998.3
2022-10-22T05:58:41.195Z,998.4
2022-10-22T05:59:57.430Z,998.5
2022-10-22T06:01:12.677Z,998.4
2022-10-22T06:02:28.923Z,998.4
2022-10-22T06:03:45.167Z,998.5
2022-10-22T06:05:01.397Z,998.5
2022-10-22T06:06:17.647Z,998.5
2022-10-22T06:07:33.888Z,998.6
2022-10-22T06:08:50.127Z,998.6
2022-10-22T06:10:06.359Z,998.6
2022-10-22T06:11:22.606Z,998.7
2022-10-22T06:12:38.855Z,998.8
2022-10-22T06:13:55.089Z,998.7
2022-10-22T06:15:11.334Z,998.7
2022-10-22T06:16:27.577Z,998.8
2022-10-22T06:17:42.822Z,998.8
2022-10-22T06:18:59.060Z,998.8
2022-10-22T06:20:15.294Z,998.9
2022-10-22T06:21:31.538Z,998.9
2022-10-22T06:22:47.783Z,998.9
2022-10-22T06:24:04.018Z,998.9
2022-10-22T06:25:20.265Z,998.9
2022-10-22T06:26:36.504Z,999
2022-10-22T06:27:52.750Z,999
2022-10-22T06:29:08.977Z,999
2022-10-22T06:30:25.215Z,999
2022-10-22T06:31:41.460Z,999.1
2022-10-22T06:32:57.701Z,999.1
2022-10-22T06:34:12.964Z,999.1
2022-10-22T06:35:29.208Z,999.2
2022-10-22T06:36:45.433Z,999.1
2022-10-22T06:38:01.677Z,999.2
2022-10-22T06:39:17.912Z,999.2
2022-10-22T06:40:34.172Z,999.4
2022-10-22T06:41:50.399Z,999.3
2022-10-22T06:43:06.644Z,999.2
2022-10-22T06:44:22.877Z,999.2
2022-10-22T06:45:39.123Z,999.2
2022-10-22T06:46:55.356Z,999.3
2022-10-22T06:48:11.606Z,999.2
2022-10-22T06:49:27.837Z,999.3
2022-10-22T06:50:43.103Z,999.3
2022-10-22T06:51:59.340Z,999.3
2022-10-22T06:53:15.568Z,999.3
2022-10-22T06:54:31.809Z,999.3
2022-10-22T06:55:48.070Z,999.3
2022-10-22T06:57:04.298Z,999.3
2022-10-22T06:58:20.533Z,999.4
2022-10-22T06:59:36.778Z,999.4
2022-10-22T07:00:53.010Z,999.4
2022-10-22T07:02:09.266Z,999.4
2022-10-22T07:03:25.493Z,999.4
2022-10-22T07:04:41.743Z,999.3
2022-10-22T07:05:57.973Z,999.3
2022-10-22T07:07:13.246Z,999.3
2022-10-22T07:08:29.479Z,999.4
2022-10-22T07:09:45.711Z,999.4
2022-10-22T07:11:01.963Z,999.4
2022-10-22T07:12:18.191Z,999.5
2022-10-22T07:13:34.433Z,999.5
2022-10-22T07:14:50.671Z,999.5
2022-10-22T07:16:06.913Z,999.5
2022-10-22T07:17:23.155Z,999.5
2022-10-22T07:18:39.387Z,999.6
2022-10-22T07:19:55.631Z,999.6
2022-10-22T07:21:11.876Z,999.6
2022-10-22T07:22:28.111Z,999.7
2022-10-22T07:23:43.377Z,999.6
2022-10-22T07:24:59.613Z,999.7
2022-10-22T07:26:15.852Z,999.7
2022-10-22T07:27:32.084Z,999.7
2022-10-22T07:28:48.334Z,999.7
2022-10-22T07:30:04.565Z,999.7
2022-10-22T07:31:19.839Z,999.8
2022-10-22T07:32:36.075Z,999.7
2022-10-22T07:33:52.309Z,999.8
2022-10-22T07:35:08.553Z,999.8
2022-10-22T07:36:24.795Z,999.9
2022-10-22T07:37:41.022Z,999.9
2022-10-22T07:38:57.274Z,999.9
2022-10-22T07:40:13.502Z,999.9
2022-10-22T07:41:29.751Z,999.9
2022-10-22T07:42:45.998Z,999.9
2022-10-22T07:44:02.229Z,1000
2022-10-22T07:45:18.470Z,1000
2022-10-22T07:46:34.711Z,1000
2022-10-22T07:47:49.981Z,1000
2022-10-22T07:49:06.208Z,1000
2022-10-22T07:50:22.453Z,1000.1
2022-10-22T07:51:38.679Z,1000
2022-10-22T07:52:54.928Z,1000.1
2022-10-22T07:54:11.171Z,1000.1
2022-10-22T07:55:27.407Z,1000
2022-10-22T07:56:43.660Z,1000
2022-10-22T07:57:59.886Z,1000.1
2022-10-22T07:59:16.119Z,1000
2022-10-22T08:00:32.359Z,1000
2022-10-22T08:01:48.608Z,1000.1
2022-10-22T08:03:04.840Z,1000.2
2022-10-22T08:04:20.112Z,1000.1
2022-10-22T08:05:36.336Z,1000.1
2022-10-22T08:06:52.592Z,1000.1
2022-10-22T08:08:08.826Z,1000.1
2022-10-22T08:09:25.055Z,1000.1
2022-10-22T08:10:41.295Z,1000.1
2022-10-22T08:11:57.542Z,1000.1
2022-10-22T08:13:13.788Z,1000.2
2022-10-22T08:14:30.027Z,1000.2
2022-10-22T08:15:46.262Z,1000.2
2022-10-22T08:17:02.511Z,1000.2
2022-10-22T08:18:18.736Z,1000.2
2022-10-22T08:19:34.976Z,1000.2
2022-10-22T08:20:50.242Z,1000.2
2022-10-22T08:22:06.485Z,1000.3
2022-10-22T08:23:22.721Z,1000.3
2022-10-22T08:24:38.953Z,1000.3
2022-10-22T08:25:55.196Z,1000.3
2022-10-22T08:27:11.432Z,1000.3
2022-10-22T08:28:27.687Z,1000.3
2022-10-22T08:29:43.928Z,1000.3
2022-10-22T08:31:00.157Z,1000.3
2022-10-22T08:32:16.393Z,1000.3
2022-10-22T08:33:32.644Z,1000.3
2022-10-22T08:34:48.876Z,1000.3
2022-10-22T08:36:05.114Z,1000.3
2022-10-22T08:37:20.383Z,1000.3
2022-10-22T08:38:36.611Z,1000.3
2022-10-22T08:39:52.856Z,1000.3
2022-10-22T08:41:09.095Z,1000.4
2022-10-22T08:42:25.330Z,1000.4
2022-10-22T08:43:41.583Z,1000.3
2022-10-22T08:44:57.828Z,1000.4
2022-10-22T08:46:14.055Z,1000.4
2022-10-22T08:47:30.290Z,1000.4
2022-10-22T08:48:46.531Z,1000.3
2022-10-22T08:50:02.767Z,1000.3
2022-10-22T08:51:19.019Z,1000.4
2022-10-22T08:52:35.255Z,1000.4
2022-10-22T08:53:50.512Z,1000.4
2022-10-22T08:55:06.747Z,1000.4
2022-10-22T08:56:22.988Z,1000.4
2022-10-22T08:57:39.236Z,1000.5
2022-10-22T08:58:55.468Z,1000.5
2022-10-22T09:00:11.722Z,1000.5
2022-10-22T09:01:27.950Z,1000.5
2022-10-22T09:02:44.189Z,1000.5
2022-10-22T09:04:00.441Z,1000.5
2022-10-22T09:05:16.674Z,1000.5
2022-10-22T09:06:32.921Z,1000.6
2022-10-22T09:07:49.159Z,1000.6
2022-10-22T09:09:05.387Z,1000.6
2022-10-22T09:10:20.643Z,1000.6
2022-10-22T09:11:36.888Z,1000.6
2022-10-22T09:12:53.133Z,1000.6
2022-10-22T09:14:09.370Z,1000.6
2022-10-22T09:15:25.610Z,1000.6
2022-10-22T09:16:41.863Z,1000.6
2022-10-22T09:17:58.090Z,1000.7
2022-10-22T09:19:14.335Z,1000.6
2022-10-22T09:20:30.565Z,1000.6
2022-10-22T09:21:46.808Z,1000.6
2022-10-22T09:23:03.056Z,1000.6
2022-10-22T09:24:19.288Z,1000.7
2022-10-22T09:25:35.541Z,1000.7
2022-10-22T09:26:50.793Z,1000.7
2022-10-22T09:28:07.018Z,1000.7
2022-10-22T09:29:23.258Z,1000.7
2022-10-22T09:30:39.498Z,1000.7
2022-10-22T09:31:55.750Z,1000.7
2022-10-22T09:33:11.981Z,1000.7
2022-10-22T09:34:28.217Z,1000.7
2022-10-22T09:35:44.472Z,1000.7
2022-10-22T09:37:00.711Z,1000.7
2022-10-22T09:38:16.954Z,1000.7
2022-10-22T09:39:33.183Z,1000.8
2022-10-22T09:40:49.433Z,1000.8
2022-10-22T09:42:05.664Z,1000.8
2022-10-22T09:43:20.913Z,1000.8
2022-10-22T09:44:37.177Z,1000.8
2022-10-22T09:45:53.401Z,1000.7
2022-10-22T09:47:09.632Z,1000.8
2022-10-22T09:48:25.892Z,1000.7
2022-10-22T09:49:42.120Z,1000.8
2022-10-22T09:50:58.355Z,1000.8
2022-10-22T09:52:14.597Z,1000.8
2022-10-22T09:53:30.842Z,1000.8
2022-10-22T09:54:47.079Z,1000.7
2022-10-22T09:56:03.315Z,1000.8
2022-10-22T09:57:19.559Z,1000.7
2022-10-22T09:58:35.798Z,1000.7
2022-10-22T09:59:51.051Z,1000.7
2022-10-22T10:01:07.304Z,1000.7
2022-10-22T10:02:23.539Z,1000.7
2022-10-22T10:03:39.770Z,1000.6
2022-10-22T10:04:56.016Z,1000.5
2022-10-22T10:06:12.260Z,1000.5
2022-10-22T10:07:28.516Z,1000.5
2022-10-22T10:08:44.736Z,1000.5
2022-10-22T10:10:00.987Z,1000.6
2022-10-22T10:11:17.227Z,1000.6
2022-10-22T10:12:33.459Z,1000.6
2022-10-22T10:13:49.707Z,1000.5
2022-10-22T10:15:05.934Z,1000.5
2022-10-22T10:16:21.208Z,1000.7
2022-10-22T10:17:37.438Z,1000.7
2022-10-22T10:18:53.679Z,1000.6
2022-10-22T10:20:09.933Z,1000.7
2022-10-22T10:21:26.168Z,1000.7
2022-10-22T10:22:42.394Z,1000.6
2022-10-22T10:23:58.641Z,1000.6
2022-10-22T10:25:14.873Z,1000.6
2022-10-22T10:26:31.116Z,1000.4
2022-10-22T10:27:47.371Z,1000.4
2022-10-22T10:29:03.600Z,1000.5
2022-10-22T10:30:19.851Z,1000.6
2022-10-22T10:31:36.077Z,1000.6
2022-10-22T10:32:51.337Z,1000.6
2022-10-22T10:34:07.576Z,1000.5
2022-10-22T10:35:23.815Z,1000.5
2022-10-22T10:36:40.068Z,1000.4
2022-10-22T10:37:56.307Z,1000.3
2022-10-22T10:39:12.545Z,1000.4
2022-10-22T10:40:28.777Z,1000.3
2022-10-22T10:41:45.016Z,1000.4
2022-10-22T10:43:01.274Z,1000.2
2022-10-22T10:44:17.502Z,1000.4
2022-10-22T10:45:33.749Z,1000.5
2022-10-22T10:46:49.988Z,1000.4
2022-10-22T10:48:06.229Z,1000.5
2022-10-22T10:49:21.475Z,1000.6
2022-10-22T10:50:37.732Z,1000.6
2022-10-22T10:51:53.957Z,1000.5
2022-10-22T10:53:10.203Z,1000.5
2022-10-22T10:54:26.441Z,1000.6
2022-10-22T10:55:42.693Z,1000.5
2022-10-22T10:56:58.926Z,1000.5
2022-10-22T10:58:15.165Z,1000.5
2022-10-22T10:59:31.416Z,1000.4
2022-10-22T11:00:47.640Z,1000.4
2022-10-22T11:02:03.900Z,1000.3
2022-10-22T11:03:20.124Z,1000.4
2022-10-22T11:04:36.368Z,1000.5
2022-10-22T11:05:51.617Z,1000.2
2022-10-22T11:07:07.864Z,1000.4
2022-10-22T11:08:24.104Z,1000.3
2022-10-22T11:09:40.356Z,1000.4
2022-10-22T11:10:56.586Z,1000.4
2022-10-22T11:12:12.830Z,1000.4
2022-10-22T11:13:29.069Z,1000.4
2022-10-22T11:14:45.306Z,1000.4
2022-10-22T11:16:01.557Z,1000.4
2022-10-22T11:17:17.802Z,1000.4
2022-10-22T11:18:34.028Z,1000.5
2022-10-22T11:19:50.266Z,1000.5
2022-10-22T11:21:06.506Z,1000.5
2022-10-22T11:22:21.765Z,1000.5
2022-10-22T11:23:38.001Z,1000.5
2022-10-22T11:24:54.255Z,1000.4
2022-10-22T11:26:10.494Z,1000.5
2022-10-22T11:27:26.737Z,1000.4
2022-10-22T11:28:42.967Z,1000.5
2022-10-22T11:29:59.207Z,1000.4
2022-10-22T11:31:15.456Z,1000.4
2022-10-22T11:32:31.709Z,1000.4
2022-10-22T11:33:47.947Z,1000.5
2022-10-22T11:35:04.180Z,1000.6
2022-10-22T11:36:20.423Z,1000.5
2022-10-22T11:37:36.665Z,1000.5
2022-10-22T11:38:51.910Z,1000.4
2022-10-22T11:41:24.394Z,1000.4
2022-10-22T11:42:40.643Z,1000.4
2022-10-22T11:43:56.880Z,1000.4
2022-10-22T11:45:13.108Z,1000.3
2022-10-22T11:46:28.371Z,1000.5
2022-10-22T11:47:44.623Z,1000.5
2022-10-22T11:49:00.849Z,1000.6
2022-10-22T11:50:17.089Z,1000.5
2022-10-22T11:51:33.333Z,1000.5
2022-10-22T11:52:49.573Z,1000.5
2022-10-22T11:54:05.813Z,1000.5
2022-10-22T11:55:22.067Z,1000.5
2022-10-22T11:56:38.298Z,1000.4
2022-10-22T11:57:54.535Z,1000.4
2022-10-22T11:59:10.776Z,1000.5
2022-10-22T12:00:27.013Z,1000.5
2022-10-22T12:01:43.267Z,1000.5
2022-10-22T12:02:58.511Z,1000.5
2022-10-22T12:04:14.770Z,1000.5
2022-10-22T12:05:31.006Z,1000.4
2022-10-22T12:06:47.231Z,1000.5
2022-10-22T12:08:03.476Z,1000.5
2022-10-22T12:09:19.715Z,1000.5
2022-10-22T12:10:35.966Z,1000.6
2022-10-22T12:11:52.197Z,1000.6
2022-10-22T12:13:08.447Z,1000.6
2022-10-22T12:14:24.679Z,1000.6
2022-10-22T12:15:40.912Z,1000.7
2022-10-22T12:16:57.153Z,1000.7
2022-10-22T12:18:13.393Z,1000.7
2022-10-22T12:19:28.653Z,1000.5
2022-10-22T12:20:44.892Z,1000.6
2022-10-22T12:22:01.147Z,1000.6
2022-10-22T12:23:17.381Z,1000.5
2022-10-22T12:24:33.611Z,1000.6
2022-10-22T12:25:49.862Z,1000.6
2022-10-22T12:27:06.101Z,1000.5
2022-10-22T12:28:22.349Z,1000.6
2022-10-22T12:29:38.583Z,1000.6
2022-10-22T12:30:54.814Z,1000.7
2022-10-22T12:32:11.057Z,1000.7
2022-10-22T12:33:27.295Z,1000.7
2022-10-22T12:34:43.551Z,1000.8
2022-10-22T12:35:58.803Z,1000.7
2022-10-22T12:37:15.031Z,1000.7
2022-10-22T12:38:31.272Z,1000.6
2022-10-22T12:39:47.514Z,1000.6
2022-10-22T12:41:03.757Z,1000.5
2022-10-22T12:42:19.999Z,1000.5
2022-10-22T12:43:36.256Z,1000.8
2022-10-22T12:44:52.484Z,1000.7
2022-10-22T12:46:08.728Z,1000.6
2022-10-22T12:47:24.964Z,1000.5
2022-10-22T12:48:41.213Z,1000.5
2022-10-22T12:49:57.461Z,1000.5
2022-10-22T12:51:13.693Z,1000.7
2022-10-22T12:52:28.940Z,1000.7
2022-10-22T12:53:45.182Z,1000.7
2022-10-22T12:55:01.431Z,1000.5
2022-10-22T12:56:17.670Z,1000.5
2022-10-22T12:57:33.912Z,1000.5
2022-10-22T12:58:50.140Z,1000.6
2022-10-22T13:00:06.393Z,1000.6
2022-10-22T13:01:22.630Z,1000.5
2022-10-22T13:02:38.871Z,1000.6
2022-10-22T13:03:55.104Z,1000.6
2022-10-22T13:05:11.355Z,1000.5
2022-10-22T13:06:27.585Z,1000.5
2022-10-22T13:07:43.824Z,1000.6
2022-10-22T13:08:59.083Z,1000.5
2022-10-22T13:10:15.322Z,1000.6
2022-10-22T13:11:31.563Z,1000.6
2022-10-22T13:12:47.810Z,1000.7
2022-10-22T13:14:04.040Z,1000.6
2022-10-22T13:15:20.292Z,1000.6
2022-10-22T13:16:36.522Z,1000.7
2022-10-22T13:17:52.762Z,1000.7
2022-10-22T13:19:09.007Z,1000.7
2022-10-22T13:20:25.252Z,1000.6
2022-10-22T13:21:41.495Z,1000.6
2022-10-22T13:22:57.720Z,1000.7
2022-10-22T13:24:13.962Z,1000.7
2022-10-22T13:25:29.221Z,1000.6
2022-10-22T13:26:45.465Z,1000.7
2022-10-22T13:28:01.700Z,1000.7
2022-10-22T13:29:17.935Z,1000.7
2022-10-22T13:30:34.178Z,1000.7
2022-10-22T13:31:50.428Z,1000.7
2022-10-22T13:33:06.654Z,1000.7
2022-10-22T13:34:22.906Z,1000.8
2022-10-22T13:35:39.142Z,1000.7
2022-10-22T13:36:55.382Z,1000.7
2022-10-22T13:38:11.629Z,1000.7
2022-10-22T13:39:27.853Z,1000.8
2022-10-22T13:40:44.096Z,1000.7
2022-10-22T13:41:59.364Z,1000.6
2022-10-22T13:43:15.594Z,1000.7
2022-10-22T13:44:31.840Z,1000.7
2022-10-22T13:45:48.074Z,1000.7
2022-10-22T13:47:04.328Z,1000.6
2022-10-22T13:48:20.561Z,1000.7
2022-10-22T13:49:36.804Z,1000.8
2022-10-22T13:50:53.038Z,1000.8
2022-10-22T13:52:09.281Z,1000.8
2022-10-22T13:53:25.514Z,1000.7
2022-10-22T13:54:41.759Z,1000.8
2022-10-22T13:55:57.991Z,1000.8
2022-10-22T13:57:14.248Z,1000.8
2022-10-22T13:58:29.491Z,1000.8
2022-10-22T13:59:45.733Z,1000.7
2022-10-22T14:01:01.983Z,1000.6
2022-10-22T14:02:18.212Z,1000.7
2022-10-22T14:03:34.457Z,1000.7
2022-10-22T14:04:50.704Z,1000.6
2022-10-22T14:06:06.931Z,1000.7
2022-10-22T14:07:23.189Z,1000.7
2022-10-22T14:08:39.414Z,1000.7
2022-10-22T14:09:55.666Z,1000.6
2022-10-22T14:11:11.900Z,1000.7
2022-10-22T14:12:28.146Z,1000.7
2022-10-22T14:13:44.389Z,1000.6
2022-10-22T14:14:59.630Z,1000.7
2022-10-22T14:16:15.878Z,1000.7
2022-10-22T14:17:32.117Z,1000.7
2022-10-22T14:18:48.358Z,1000.7
2022-10-22T14:20:04.593Z,1000.7
2022-10-22T14:21:20.841Z,1000.7
2022-10-22T14:22:37.077Z,1000.7
2022-10-22T14:23:53.321Z,1000.7
2022-10-22T14:25:09.554Z,1000.7
2022-10-22T14:26:25.786Z,1000.8
2022-10-22T14:27:42.042Z,1000.7
2022-10-22T14:28:58.274Z,1000.8
2022-10-22T14:30:14.514Z,1000.8
2022-10-22T14:31:29.763Z,1000.8
2022-10-22T14:32:46.007Z,1000.8
2022-10-22T14:34:02.253Z,1000.8
2022-10-22T14:35:18.484Z,1000.8
2022-10-22T14:36:34.726Z,1000.8
2022-10-22T14:37:50.968Z,1000.9
2022-10-22T14:39:07.212Z,1000.8
2022-10-22T14:40:23.457Z,1000.9
2022-10-22T14:41:39.694Z,1000.9
2022-10-22T14:42:55.940Z,1000.8
2022-10-22T14:44:12.177Z,1000.9
2022-10-22T14:45:28.421Z,1000.9
2022-10-22T14:46:44.649Z,1001
2022-10-22T14:47:59.908Z,1000.9
2022-10-22T14:49:16.141Z,1000.9
2022-10-22T14:50:32.383Z,1001
2022-10-22T14:51:48.629Z,1000.9
2022-10-22T14:53:04.862Z,1001
2022-10-22T14:54:21.103Z,1001
2022-10-22T14:55:37.350Z,1001
2022-10-22T14:56:53.596Z,1001
2022-10-22T14:58:09.821Z,1001.1
2022-10-22T14:59:26.073Z,1001.1
2022-10-22T15:00:42.301Z,1001.1
2022-10-22T15:01:58.548Z,1001.1
2022-10-22T15:03:14.783Z,1001.1
2022-10-22T15:04:30.047Z,1001.2
2022-10-22T15:05:46.288Z,1001.1
2022-10-22T15:07:02.524Z,1001.2
2022-10-22T15:08:18.771Z,1001.2
2022-10-22T15:09:35.011Z,1001.2
2022-10-22T15:10:51.244Z,1001.2
2022-10-22T15:12:07.485Z,1001.2
2022-10-22T15:13:23.735Z,1001.2
2022-10-22T15:14:39.975Z,1001.3
2022-10-22T15:15:56.211Z,1001.2
2022-10-22T15:17:12.456Z,1001.2
2022-10-22T15:18:28.685Z,1001.3
2022-10-22T15:19:44.925Z,1001.3
2022-10-22T15:21:00.183Z,1001.4
2022-10-22T15:22:16.432Z,1001.3
2022-10-22T15:23:32.657Z,1001.4
2022-10-22T15:24:48.897Z,1001.4
2022-10-22T15:26:05.144Z,1001.4
2022-10-22T15:27:21.375Z,1001.4
2022-10-22T15:28:37.631Z,1001.4
2022-10-22T15:29:53.869Z,1001.4
2022-10-22T15:31:10.100Z,1001.5
2022-10-22T15:32:26.335Z,1001.5
2022-10-22T15:33:42.585Z,1001.5
2022-10-22T15:34:58.824Z,1001.5
2022-10-22T15:36:15.066Z,1001.5
2022-10-22T15:37:30.322Z,1001.5
2022-10-22T15:38:46.558Z,1001.5
2022-10-22T15:40:02.798Z,1001.5
2022-10-22T15:41:19.045Z,1001.5
2022-10-22T15:42:35.280Z,1001.6
2022-10-22T15:43:51.531Z,1001.5
2022-10-22T15:45:07.760Z,1001.5
2022-10-22T15:46:23.998Z,1001.5
2022-10-22T15:47:40.240Z,1001.6
2022-10-22T15:48:56.480Z,1001.6
2022-10-22T15:50:12.724Z,1001.6
2022-10-22T15:51:28.951Z,1001.6
2022-10-22T15:52:45.198Z,1001.6
2022-10-22T15:54:00.452Z,1001.7
2022-10-22T15:55:16.690Z,1001.7
2022-10-22T15:56:32.934Z,1001.7
2022-10-22T15:57:49.174Z,1001.7
2022-10-22T15:59:05.425Z,1001.7
2022-10-22T16:00:21.652Z,1001.7
2022-10-22T16:01:36.920Z,1001.7
2022-10-22T16:02:53.168Z,1001.7
2022-10-22T16:04:09.400Z,1001.7
2022-10-22T16:05:25.638Z,1001.7
2022-10-22T16:06:41.871Z,1001.8
2022-10-22T16:07:58.115Z,1001.8
2022-10-22T16:09:14.355Z,1001.8
2022-10-22T16:10:30.593Z,1001.8
2022-10-22T16:11:46.846Z,1001.8